Time;durP1;ratioP1;P1;durP2;ratioP2;P2;SDS_P1;SDS_P2;PMS_P1;PMS_P2;Temp;Humidity;BMP_temperature;BMP_pressure;BME280_temperature;BME280_humidity;BME280_pressure;Samples;Min_cycle;Max_cycle;Signal;HPM_P1;HPM_P2
2021/10/23 00:00:09;;;;;;;2.60;1.17;;;8.30;91.20;;;;;;4993447;28;20120;-85
2021/10/23 00:02:34;;;;;;;3.10;1.35;;;8.20;91.30;;;;;;4993381;28;20445;-86
2021/10/23 00:05:00;;;;;;;5.03;1.50;;;8.20;91.30;;;;;;4997821;28;20088;-86
2021/10/23 00:07:26;;;;;;;6.35;1.50;;;8.20;91.40;;;;;;4985246;28;20158;-88
2021/10/23 00:09:51;;;;;;;4.63;1.50;;;8.20;91.60;;;;;;4985188;28;20403;-89
2021/10/23 00:12:17;;;;;;;6.45;1.70;;;8.20;91.40;;;;;;4995823;28;20021;-88
2021/10/23 00:14:42;;;;;;;2.17;1.27;;;8.20;91.40;;;;;;4992577;28;20041;-87
2021/10/23 00:17:08;;;;;;;4.43;1.27;;;8.20;91.50;;;;;;4994797;28;20072;-87
2021/10/23 00:19:34;;;;;;;4.43;1.45;;;8.20;91.60;;;;;;4995019;28;20042;-88
2021/10/23 00:22:00;;;;;;;5.60;1.40;;;8.20;91.90;;;;;;4995353;28;20125;-87
2021/10/23 00:24:25;;;;;;;6.88;1.58;;;8.20;91.60;;;;;;4994425;28;20030;-87
2021/10/23 00:26:51;;;;;;;4.60;1.30;;;8.20;91.60;;;;;;4993058;28;20038;-87
2021/10/23 00:29:17;;;;;;;3.58;1.70;;;8.20;91.60;;;;;;4993557;28;20099;-87
2021/10/23 00:31:42;;;;;;;6.38;1.50;;;8.20;91.60;;;;;;4994072;28;20026;-87
2021/10/23 00:34:08;;;;;;;8.35;1.60;;;8.20;91.70;;;;;;4984483;28;20034;-87
2021/10/23 00:36:33;;;;;;;3.42;1.55;;;8.20;91.80;;;;;;5007477;28;20096;-87
2021/10/23 00:38:59;;;;;;;4.93;1.65;;;8.20;91.80;;;;;;5011237;28;20490;-86
2021/10/23 00:41:25;;;;;;;7.63;2.00;;;8.20;91.80;;;;;;4989143;28;20029;-87
2021/10/23 00:43:51;;;;;;;4.40;1.58;;;8.30;91.90;;;;;;4984818;28;20024;-87
2021/10/23 00:46:17;;;;;;;5.60;1.27;;;8.20;91.90;;;;;;4977060;28;20023;-88
2021/10/23 00:48:43;;;;;;;3.95;1.80;;;8.20;92.00;;;;;;4986653;28;20069;-88
2021/10/23 00:51:10;;;;;;;4.82;1.58;;;8.20;92.00;;;;;;5012608;28;20036;-87
2021/10/23 00:53:36;;;;;;;5.00;1.60;;;8.20;92.00;;;;;;4987178;28;20037;-89
2021/10/23 00:56:03;;;;;;;7.13;1.70;;;8.20;92.10;;;;;;4995323;28;20033;-88
2021/10/23 00:58:29;;;;;;;8.45;2.05;;;8.10;92.10;;;;;;4992566;28;20030;-89
2021/10/23 01:00:55;;;;;;;5.07;2.17;;;8.10;92.20;;;;;;4991731;28;20025;-87
2021/10/23 01:03:21;;;;;;;10.80;1.90;;;8.10;92.30;;;;;;5009900;28;20030;-88
2021/10/23 01:05:46;;;;;;;5.40;1.70;;;8.10;92.30;;;;;;4993401;28;20030;-87
2021/10/23 01:08:13;;;;;;;6.72;1.88;;;8.10;92.40;;;;;;4994161;28;20033;-87
2021/10/23 01:10:39;;;;;;;5.70;1.58;;;8.10;92.40;;;;;;5009403;28;20025;-88
2021/10/23 01:13:05;;;;;;;3.38;1.38;;;8.10;92.50;;;;;;4991192;28;20017;-88
2021/10/23 01:15:32;;;;;;;3.03;1.45;;;8.00;92.50;;;;;;4987927;28;20430;-88
2021/10/23 01:18:01;;;;;;;4.47;1.60;;;8.00;92.60;;;;;;4990588;28;20030;-87
2021/10/23 01:20:28;;;;;;;7.05;1.77;;;8.00;92.70;;;;;;4991335;28;20058;-87
2021/10/23 01:22:54;;;;;;;5.50;1.85;;;8.00;92.70;;;;;;4991608;28;20674;-88
2021/10/23 01:25:21;;;;;;;5.03;1.70;;;8.00;92.80;;;;;;4991243;28;20036;-89
2021/10/23 01:27:54;;;;;;;4.20;1.33;;;8.00;92.80;;;;;;4991141;28;20030;-88
2021/10/23 01:30:20;;;;;;;5.80;2.17;;;8.00;93.00;;;;;;4991731;28;20025;-89
2021/10/23 01:32:46;;;;;;;8.32;1.98;;;8.00;93.00;;;;;;5012501;28;20041;-88
2021/10/23 01:35:12;;;;;;;8.93;2.15;;;8.10;93.00;;;;;;4994218;28;20038;-88
2021/10/23 01:37:40;;;;;;;3.90;1.80;;;8.10;93.10;;;;;;5010049;28;20025;-89
2021/10/23 01:40:08;;;;;;;2.97;1.60;;;8.10;93.10;;;;;;4985768;28;20019;-89
2021/10/23 01:42:34;;;;;;;6.70;1.83;;;8.10;93.10;;;;;;5011159;28;20045;-88
2021/10/23 01:45:00;;;;;;;5.95;2.03;;;8.10;93.10;;;;;;4992777;28;20030;-89
2021/10/23 01:47:25;;;;;;;8.30;2.17;;;8.00;93.10;;;;;;4988729;28;20550;-88
2021/10/23 01:49:51;;;;;;;6.00;1.77;;;8.00;93.10;;;;;;5011803;28;20109;-88
2021/10/23 01:52:17;;;;;;;7.70;2.20;;;8.00;93.20;;;;;;4980880;28;20065;-88
2021/10/23 01:54:42;;;;;;;7.05;2.25;;;8.00;93.20;;;;;;4984801;28;20084;-87
2021/10/23 01:57:08;;;;;;;8.68;1.92;;;8.00;93.30;;;;;;5007776;28;20037;-88
2021/10/23 01:59:34;;;;;;;4.97;2.08;;;8.00;93.30;;;;;;4992919;28;20041;-89
2021/10/23 02:02:01;;;;;;;8.27;1.90;;;8.00;93.40;;;;;;4983678;28;20469;-88
2021/10/23 02:04:27;;;;;;;9.13;1.83;;;8.00;93.30;;;;;;4992684;28;20570;-88
2021/10/23 02:06:52;;;;;;;7.65;2.17;;;7.90;93.30;;;;;;4986310;28;20097;-89
2021/10/23 02:09:18;;;;;;;8.27;2.08;;;7.90;93.30;;;;;;4984338;28;20093;-88
2021/10/23 02:11:44;;;;;;;7.55;2.08;;;7.90;93.40;;;;;;4994647;28;20034;-88
2021/10/23 02:14:10;;;;;;;6.97;2.10;;;7.90;93.40;;;;;;4989674;28;20029;-89
2021/10/23 02:16:36;;;;;;;6.22;2.20;;;7.90;93.50;;;;;;4990199;28;20374;-86
2021/10/23 02:19:03;;;;;;;5.22;1.92;;;7.90;93.50;;;;;;4993968;28;20036;-90
2021/10/23 02:21:28;;;;;;;3.05;1.77;;;7.90;93.60;;;;;;4988031;28;20046;-89
2021/10/23 02:23:54;;;;;;;5.78;2.13;;;7.90;93.70;;;;;;4990886;28;20109;-88
2021/10/23 02:26:19;;;;;;;8.60;2.25;;;7.90;93.70;;;;;;4983393;28;20033;-88
2021/10/23 02:28:45;;;;;;;5.20;2.17;;;8.00;93.70;;;;;;4979957;28;20030;-89
2021/10/23 02:31:11;;;;;;;5.82;2.30;;;8.00;93.80;;;;;;4986809;28;20137;-89
2021/10/23 02:33:37;;;;;;;4.53;2.17;;;8.00;93.70;;;;;;4988904;28;20552;-88
2021/10/23 02:36:03;;;;;;;4.00;2.05;;;8.00;93.80;;;;;;4993617;28;20022;-89
2021/10/23 02:38:29;;;;;;;5.18;2.58;;;8.00;93.90;;;;;;4993835;28;20125;-89
2021/10/23 02:40:56;;;;;;;8.05;2.63;;;8.00;93.90;;;;;;4994452;28;20034;-89
2021/10/23 02:43:23;;;;;;;6.50;2.25;;;8.00;93.90;;;;;;4988645;28;20109;-89
2021/10/23 02:45:48;;;;;;;5.97;1.83;;;8.00;93.90;;;;;;4985016;28;20483;-89
2021/10/23 02:48:14;;;;;;;6.18;2.28;;;8.00;93.90;;;;;;4994724;23;20042;-68
2021/10/23 02:50:40;;;;;;;4.97;1.90;;;8.00;93.90;;;;;;4987084;28;20039;-67
2021/10/23 02:53:06;;;;;;;7.15;2.40;;;8.00;93.90;;;;;;4983359;28;20030;-68
2021/10/23 02:55:32;;;;;;;4.07;2.08;;;8.00;93.90;;;;;;4988732;28;20308;-68
2021/10/23 02:57:57;;;;;;;6.85;2.55;;;7.90;93.90;;;;;;4975973;28;20019;-68
2021/10/23 03:00:23;;;;;;;5.55;2.17;;;7.90;93.90;;;;;;4983986;28;20050;-68
2021/10/23 03:02:50;;;;;;;5.60;2.30;;;7.90;93.90;;;;;;4971696;28;20035;-68
2021/10/23 03:05:16;;;;;;;8.20;2.35;;;7.90;93.90;;;;;;4986917;28;20357;-68
2021/10/23 03:07:42;;;;;;;11.32;2.75;;;7.90;93.90;;;;;;4988978;28;20108;-68
2021/10/23 03:10:08;;;;;;;4.90;2.10;;;7.80;93.90;;;;;;4979770;28;20428;-68
2021/10/23 03:12:33;;;;;;;3.88;2.50;;;7.90;94.00;;;;;;4978736;28;20023;-67
2021/10/23 03:14:59;;;;;;;6.95;2.45;;;7.90;94.10;;;;;;4988457;28;20034;-67
2021/10/23 03:17:25;;;;;;;5.95;2.00;;;7.80;94.10;;;;;;4984968;28;20031;-67
2021/10/23 03:19:50;;;;;;;6.05;2.20;;;7.80;94.10;;;;;;4986194;28;20027;-68
2021/10/23 03:22:16;;;;;;;5.32;2.35;;;7.90;94.20;;;;;;4989390;28;20125;-67
2021/10/23 03:24:42;;;;;;;7.00;2.35;;;7.90;94.30;;;;;;4986381;28;20034;-67
2021/10/23 03:27:07;;;;;;;11.40;2.50;;;7.90;94.30;;;;;;4974874;28;20031;-67
2021/10/23 03:29:33;;;;;;;8.52;2.60;;;8.00;94.30;;;;;;4978648;28;20134;-68
2021/10/23 03:31:58;;;;;;;6.50;2.63;;;8.00;94.30;;;;;;4982789;28;20034;-68
2021/10/23 03:34:24;;;;;;;5.22;2.40;;;8.00;94.30;;;;;;4978089;28;20039;-68
2021/10/23 03:36:50;;;;;;;5.35;1.95;;;8.00;94.40;;;;;;4980691;28;20026;-67
2021/10/23 03:39:15;;;;;;;9.48;2.85;;;8.00;94.40;;;;;;4986048;28;20050;-68
2021/10/23 03:41:41;;;;;;;7.75;2.60;;;8.10;94.60;;;;;;4975275;28;20030;-67
2021/10/23 03:44:07;;;;;;;4.85;2.35;;;8.10;94.40;;;;;;4988541;28;20019;-68
2021/10/23 03:46:33;;;;;;;3.58;2.35;;;8.10;94.40;;;;;;4972742;28;20040;-68
2021/10/23 03:48:59;;;;;;;7.25;3.00;;;8.10;94.50;;;;;;4991775;28;20109;-68
2021/10/23 03:51:24;;;;;;;8.27;2.55;;;8.10;94.50;;;;;;4991925;28;20113;-67
2021/10/23 03:53:50;;;;;;;5.88;2.50;;;8.10;94.50;;;;;;4991847;28;20420;-68
2021/10/23 03:56:15;;;;;;;5.80;2.70;;;8.10;94.50;;;;;;4978392;28;20035;-68
2021/10/23 03:58:41;;;;;;;6.13;2.78;;;8.10;94.50;;;;;;4972138;28;20069;-68
2021/10/23 04:01:07;;;;;;;5.18;3.03;;;8.10;94.50;;;;;;4985009;28;20125;-68
2021/10/23 04:03:33;;;;;;;8.80;3.38;;;8.10;94.40;;;;;;4975149;28;20050;-68
2021/10/23 04:05:59;;;;;;;7.57;2.83;;;8.10;94.40;;;;;;4983413;28;20072;-68
2021/10/23 04:08:25;;;;;;;4.03;2.72;;;8.10;94.40;;;;;;4991435;28;20042;-67
2021/10/23 04:10:50;;;;;;;6.63;2.72;;;8.10;94.40;;;;;;4982761;28;20038;-68
2021/10/23 04:13:16;;;;;;;9.07;2.70;;;8.00;94.40;;;;;;4970301;28;20149;-68
2021/10/23 04:15:42;;;;;;;5.22;2.83;;;8.00;94.50;;;;;;4991518;28;20308;-68
2021/10/23 04:18:07;;;;;;;10.18;3.28;;;8.00;94.50;;;;;;4984261;28;20478;-68
2021/10/23 04:20:33;;;;;;;6.40;2.67;;;8.00;94.50;;;;;;4978594;28;20030;-68
2021/10/23 04:22:59;;;;;;;13.40;3.00;;;8.00;94.50;;;;;;4990979;28;20026;-68
2021/10/23 04:25:24;;;;;;;10.65;3.88;;;8.00;94.60;;;;;;4988238;28;20022;-68
2021/10/23 04:27:50;;;;;;;11.68;3.13;;;8.00;94.60;;;;;;4983247;28;20030;-68
2021/10/23 04:30:15;;;;;;;5.40;2.83;;;8.00;94.60;;;;;;4989398;28;20030;-68
2021/10/23 04:32:41;;;;;;;6.03;2.90;;;8.00;94.70;;;;;;4989285;28;20026;-67
2021/10/23 04:35:07;;;;;;;8.23;2.90;;;8.00;94.70;;;;;;4988555;28;20506;-68
2021/10/23 04:37:33;;;;;;;8.45;3.20;;;8.10;94.70;;;;;;4964085;28;20030;-68
2021/10/23 04:39:59;;;;;;;7.78;3.30;;;8.00;94.60;;;;;;4986912;28;20431;-68
2021/10/23 04:42:24;;;;;;;7.65;3.65;;;8.00;94.70;;;;;;4970223;28;20339;-68
2021/10/23 04:44:50;;;;;;;8.40;3.08;;;8.00;94.70;;;;;;4981653;28;20113;-68
2021/10/23 04:47:15;;;;;;;6.60;3.58;;;8.00;94.70;;;;;;4962658;28;20509;-67
2021/10/23 04:49:41;;;;;;;11.35;3.25;;;8.10;94.80;;;;;;4973903;28;20394;-68
2021/10/23 04:52:07;;;;;;;7.75;3.33;;;8.10;94.80;;;;;;4989155;28;20030;-67
2021/10/23 04:54:32;;;;;;;9.40;3.35;;;8.10;94.80;;;;;;4971975;28;20031;-67
2021/10/23 04:56:58;;;;;;;8.10;3.17;;;8.10;94.80;;;;;;4982504;28;20399;-67
2021/10/23 04:59:24;;;;;;;12.02;3.38;;;8.10;94.80;;;;;;4972111;28;20031;-67
2021/10/23 05:01:49;;;;;;;5.80;3.25;;;8.10;94.90;;;;;;4987029;28;20022;-67
2021/10/23 05:04:15;;;;;;;8.90;3.47;;;8.10;94.90;;;;;;4976757;28;20034;-67
2021/10/23 05:06:40;;;;;;;11.10;3.90;;;8.10;94.90;;;;;;4986532;28;20038;-67
2021/10/23 05:09:06;;;;;;;10.82;3.70;;;8.10;94.90;;;;;;4972971;28;20026;-68
2021/10/23 05:11:32;;;;;;;8.73;3.55;;;8.20;95.00;;;;;;4970501;28;20110;-67
2021/10/23 05:13:57;;;;;;;10.88;3.33;;;8.20;95.00;;;;;;4968143;28;20034;-67
2021/10/23 05:16:23;;;;;;;6.03;2.97;;;8.20;94.90;;;;;;4977717;28;20073;-67
2021/10/23 05:18:49;;;;;;;6.45;3.10;;;8.20;95.00;;;;;;4989991;28;20041;-67
2021/10/23 05:21:19;;;;;;;10.02;3.70;;;8.20;95.00;;;;;;4979715;28;20502;-67
2021/10/23 05:23:46;;;;;;;6.47;3.50;;;8.20;95.10;;;;;;4986206;28;20395;-67
2021/10/23 05:26:12;;;;;;;6.60;3.35;;;8.20;95.00;;;;;;4978320;28;20074;-67
2021/10/23 05:28:37;;;;;;;7.88;4.05;;;8.20;95.00;;;;;;4982778;28;20090;-67
2021/10/23 05:31:04;;;;;;;7.28;3.50;;;8.30;95.00;;;;;;4984681;28;20109;-67
2021/10/23 05:33:30;;;;;;;11.32;3.33;;;8.30;95.00;;;;;;4975171;28;20432;-68
2021/10/23 05:35:55;;;;;;;7.57;3.88;;;8.30;95.00;;;;;;4962731;28;20030;-67
2021/10/23 05:38:21;;;;;;;11.25;3.63;;;8.20;94.90;;;;;;4983851;28;20545;-67
2021/10/23 05:40:47;;;;;;;7.65;3.53;;;8.20;94.90;;;;;;4976125;28;20064;-67
2021/10/23 05:43:12;;;;;;;7.00;3.63;;;8.20;95.00;;;;;;4980846;28;20031;-67
2021/10/23 05:45:38;;;;;;;9.68;3.58;;;8.20;95.00;;;;;;4990600;28;20033;-67
2021/10/23 05:48:04;;;;;;;8.88;3.63;;;8.20;95.00;;;;;;4988469;28;20080;-67
2021/10/23 05:50:29;;;;;;;8.18;3.70;;;8.20;95.00;;;;;;4985725;28;20031;-67
2021/10/23 05:52:55;;;;;;;8.10;3.70;;;8.20;95.10;;;;;;4985353;28;20038;-68
2021/10/23 05:55:21;;;;;;;9.20;5.05;;;8.20;95.00;;;;;;4977759;28;20027;-67
2021/10/23 05:57:46;;;;;;;6.78;4.40;;;8.20;95.10;;;;;;4965491;28;20091;-67
2021/10/23 06:00:13;;;;;;;7.30;3.78;;;8.20;95.10;;;;;;4976851;28;20105;-67
2021/10/23 06:02:39;;;;;;;11.05;3.70;;;8.20;95.10;;;;;;4985506;28;20037;-68
2021/10/23 06:05:06;;;;;;;6.85;3.90;;;8.20;95.10;;;;;;4989377;28;20022;-71
2021/10/23 06:07:37;;;;;;;8.50;3.80;;;8.20;95.10;;;;;;4981548;28;20038;-65
2021/10/23 06:10:05;;;;;;;10.77;4.25;;;8.20;95.00;;;;;;4984039;28;20027;-66
2021/10/23 06:12:31;;;;;;;13.52;5.80;;;8.10;95.00;;;;;;4988605;28;20030;-66
2021/10/23 06:14:57;;;;;;;8.38;3.95;;;8.10;95.00;;;;;;4988857;28;20027;-66
2021/10/23 06:17:23;;;;;;;9.25;3.42;;;8.00;95.00;;;;;;4986005;28;20026;-68
2021/10/23 06:19:49;;;;;;;10.40;3.70;;;8.00;95.00;;;;;;4975819;28;20425;-68
2021/10/23 06:22:16;;;;;;;10.90;3.97;;;8.00;95.00;;;;;;4977894;28;20042;-67
2021/10/23 06:24:42;;;;;;;11.45;3.90;;;8.00;95.10;;;;;;4984615;28;20035;-68
2021/10/23 06:27:08;;;;;;;7.10;3.20;;;8.00;95.00;;;;;;4988666;28;20491;-68
2021/10/23 06:29:33;;;;;;;5.43;3.78;;;7.90;95.00;;;;;;4979678;28;20110;-68
2021/10/23 06:31:59;;;;;;;8.18;4.07;;;7.90;95.10;;;;;;4983584;28;20034;-69
2021/10/23 06:34:26;;;;;;;6.15;3.20;;;7.90;95.10;;;;;;4976899;28;20034;-68
2021/10/23 06:36:51;;;;;;;10.75;4.13;;;7.90;95.10;;;;;;4988233;28;20039;-69
2021/10/23 06:39:17;;;;;;;10.27;4.18;;;7.90;95.10;;;;;;4984647;28;20494;-69
2021/10/23 06:41:42;;;;;;;6.55;4.32;;;7.90;95.10;;;;;;4976640;28;20055;-67
2021/10/23 06:44:08;;;;;;;7.95;3.88;;;7.90;95.10;;;;;;4986451;28;20069;-69
2021/10/23 06:46:38;;;;;;;8.02;4.20;;;7.80;95.10;;;;;;4983162;28;20173;-69
2021/10/23 06:49:06;;;;;;;9.38;4.32;;;7.80;95.10;;;;;;4984932;28;20514;-68
2021/10/23 06:51:32;;;;;;;7.60;3.60;;;7.90;95.10;;;;;;4987444;28;20455;-68
2021/10/23 06:53:59;;;;;;;8.43;3.45;;;8.10;95.10;;;;;;4987226;28;20038;-68
2021/10/23 06:56:26;;;;;;;6.30;3.10;;;8.50;94.80;;;;;;4981807;28;20042;-67
2021/10/23 06:58:51;;;;;;;7.80;3.13;;;8.90;94.50;;;;;;4982550;28;20475;-69
2021/10/23 07:01:17;;;;;;;6.63;2.80;;;9.30;94.20;;;;;;4991417;28;20109;-67
2021/10/23 07:03:43;;;;;;;10.63;4.60;;;9.70;93.90;;;;;;4963520;28;20080;-67
2021/10/23 07:06:09;;;;;;;8.88;4.70;;;10.00;93.50;;;;;;4987212;28;20031;-69
2021/10/23 07:08:34;;;;;;;4.78;3.10;;;10.20;93.30;;;;;;4989528;28;20033;-69
2021/10/23 07:11:00;;;;;;;9.20;3.25;;;10.50;93.30;;;;;;4987587;28;20483;-69
2021/10/23 07:13:26;;;;;;;7.25;3.08;;;10.80;92.80;;;;;;4973143;28;20043;-69
2021/10/23 07:15:52;;;;;;;9.15;2.75;;;11.10;92.60;;;;;;4984249;28;20572;-68
2021/10/23 07:18:17;;;;;;;6.25;2.55;;;11.20;92.20;;;;;;4976430;28;20039;-68
2021/10/23 07:20:43;;;;;;;6.50;2.85;;;11.40;92.00;;;;;;4976053;28;20066;-68
2021/10/23 07:23:09;;;;;;;4.82;2.50;;;11.40;91.90;;;;;;4987458;28;20030;-68
2021/10/23 07:25:34;;;;;;;7.70;2.65;;;11.40;92.10;;;;;;4981890;28;20053;-69
2021/10/23 07:28:00;;;;;;;4.35;2.63;;;11.70;92.10;;;;;;4991593;28;20054;-70
2021/10/23 07:30:26;;;;;;;8.18;2.78;;;11.90;91.80;;;;;;4994012;28;20022;-69
2021/10/23 07:32:52;;;;;;;18.70;10.85;;;12.00;91.40;;;;;;4982215;28;20030;-68
2021/10/23 07:35:18;;;;;;;8.07;3.10;;;12.10;91.60;;;;;;4984750;28;20368;-68
2021/10/23 07:37:43;;;;;;;6.22;2.70;;;12.20;91.90;;;;;;4993359;28;20434;-69
2021/10/23 07:40:12;;;;;;;6.43;3.30;;;12.20;91.70;;;;;;4991213;28;20030;-69
2021/10/23 07:42:39;;;;;;;5.88;3.10;;;12.20;91.90;;;;;;4979744;28;20023;-68
2021/10/23 07:45:06;;;;;;;11.32;6.30;;;12.10;92.30;;;;;;4974266;28;20045;-67
2021/10/23 07:47:32;;;;;;;8.82;3.13;;;12.10;92.20;;;;;;4988541;28;20035;-67
2021/10/23 07:49:58;;;;;;;11.43;3.15;;;12.00;92.00;;;;;;4984587;28;20029;-67
2021/10/23 07:52:24;;;;;;;6.55;2.70;;;11.80;91.90;;;;;;4992192;28;20030;-67
2021/10/23 07:54:49;;;;;;;8.95;3.40;;;11.60;91.90;;;;;;4984075;28;20518;-68
2021/10/23 07:57:16;;;;;;;8.63;3.65;;;11.30;91.90;;;;;;4981249;28;20539;-67
2021/10/23 07:59:42;;;;;;;8.52;3.60;;;11.10;91.90;;;;;;4987692;28;20104;-67
2021/10/23 08:02:07;;;;;;;8.98;3.70;;;10.80;91.80;;;;;;4991131;28;20478;-67
2021/10/23 08:04:33;;;;;;;6.80;3.20;;;10.60;92.10;;;;;;4972972;28;20026;-67
2021/10/23 08:07:01;;;;;;;8.95;3.10;;;10.40;92.10;;;;;;4991296;28;20029;-68
2021/10/23 08:09:32;;;;;;;5.50;2.75;;;10.30;92.40;;;;;;4991341;28;20080;-66
2021/10/23 08:11:58;;;;;;;9.68;3.42;;;10.20;92.50;;;;;;4969897;28;20026;-69
2021/10/23 08:14:24;;;;;;;4.65;2.92;;;10.20;92.60;;;;;;4991206;28;20375;-68
2021/10/23 08:16:50;;;;;;;5.88;2.80;;;10.10;92.60;;;;;;4990528;28;20084;-68
2021/10/23 08:19:16;;;;;;;10.48;6.03;;;10.10;92.70;;;;;;4984435;28;20034;-68
2021/10/23 08:21:41;;;;;;;8.50;5.43;;;10.10;92.80;;;;;;4989445;28;20026;-68
2021/10/23 08:24:11;;;;;;;9.30;3.70;;;10.10;92.70;;;;;;4982512;28;20022;-65
2021/10/23 08:26:37;;;;;;;9.95;3.58;;;10.20;92.90;;;;;;4985032;28;20041;-67
2021/10/23 08:29:03;;;;;;;6.13;3.63;;;10.40;93.10;;;;;;4987211;28;20073;-68
2021/10/23 08:31:31;;;;;;;9.85;3.03;;;10.60;93.10;;;;;;4965592;28;20293;-68
2021/10/23 08:33:57;;;;;;;6.20;3.33;;;10.70;93.00;;;;;;4981837;28;20030;-68
2021/10/23 08:36:23;;;;;;;7.30;3.25;;;10.80;92.90;;;;;;4981169;28;20115;-68
2021/10/23 08:38:50;;;;;;;6.63;3.10;;;10.90;92.80;;;;;;4975147;28;20515;-68
2021/10/23 08:41:17;;;;;;;6.75;3.30;;;10.90;92.40;;;;;;4988254;28;20018;-67
2021/10/23 08:43:43;;;;;;;9.48;3.63;;;11.00;92.60;;;;;;4983896;28;20014;-67
2021/10/23 08:46:21;;;;;;;13.70;7.82;;;11.00;92.50;;;;;;4991946;28;20049;-67
2021/10/23 08:51:16;;;;;;;9.90;3.20;;;10.80;92.50;;;;;;4989350;28;20051;-69
2021/10/23 08:53:42;;;;;;;6.47;3.13;;;10.70;92.50;;;;;;4976429;28;20021;-68
2021/10/23 08:56:09;;;;;;;6.63;3.50;;;10.70;92.70;;;;;;5009282;28;20529;-68
2021/10/23 08:58:35;;;;;;;9.82;3.20;;;10.70;92.70;;;;;;5007953;28;20022;-68
2021/10/23 09:01:01;;;;;;;5.65;3.00;;;10.70;92.50;;;;;;5008629;28;20504;-68
2021/10/23 09:03:27;;;;;;;6.25;3.20;;;10.80;92.70;;;;;;5004242;28;20034;-68
2021/10/23 09:05:53;;;;;;;8.88;3.30;;;10.80;92.30;;;;;;5010344;28;20488;-70
2021/10/23 09:08:20;;;;;;;7.93;3.03;;;10.80;92.50;;;;;;4992129;28;20045;-67
2021/10/23 09:10:48;;;;;;;5.45;3.10;;;10.80;92.30;;;;;;5009276;28;20025;-67
2021/10/23 09:13:24;;;;;;;5.32;2.88;;;10.70;92.20;;;;;;4986574;28;20029;-66
2021/10/23 09:15:49;;;;;;;7.43;2.95;;;10.70;92.00;;;;;;5010252;28;20026;-67
2021/10/23 09:18:15;;;;;;;7.22;2.72;;;10.70;91.90;;;;;;5009912;28;20033;-66
2021/10/23 09:20:42;;;;;;;7.30;3.33;;;10.80;92.10;;;;;;5015477;28;20089;-67
2021/10/23 09:23:19;;;;;;;7.80;2.80;;;10.90;92.40;;;;;;5007484;28;20057;-67
2021/10/23 09:25:51;;;;;;;6.13;3.00;;;11.10;92.30;;;;;;4996399;28;20033;-68
2021/10/23 09:28:27;;;;;;;4.70;2.30;;;11.30;92.40;;;;;;5011186;28;20029;-67
2021/10/23 09:30:53;;;;;;;8.48;3.03;;;11.50;92.40;;;;;;4998691;28;20038;-67
2021/10/23 09:33:20;;;;;;;5.97;2.90;;;11.60;92.20;;;;;;5001178;28;20022;-66
2021/10/23 09:35:48;;;;;;;7.53;3.05;;;11.60;92.00;;;;;;5012397;28;20034;-67
2021/10/23 09:38:16;;;;;;;6.18;2.53;;;11.60;91.90;;;;;;5006696;28;20105;-68
2021/10/23 09:40:50;;;;;;;13.52;3.00;;;11.70;91.90;;;;;;5008919;28;20106;-68
2021/10/23 09:43:28;;;;;;;11.35;3.85;;;11.70;91.90;;;;;;5003613;28;20486;-67
2021/10/23 09:46:00;;;;;;;12.10;3.13;;;11.70;91.70;;;;;;5009609;28;20108;-68
2021/10/23 09:48:47;;;;;;;6.18;2.80;;;11.70;91.60;;;;;;5009575;28;20105;-67
2021/10/23 09:51:30;;;;;;;8.88;2.13;;;11.80;91.60;;;;;;5004060;28;20033;-67
2021/10/23 09:53:57;;;;;;;;;;;11.80;91.40;;;;;;4992045;28;20026;-67
2021/10/23 09:56:33;;;;;;;6.20;2.25;;;11.90;91.70;;;;;;5010461;28;19909;-67
2021/10/23 09:59:01;;;;;;;50.17;25.88;;;11.90;91.50;;;;;;5010309;28;20033;-67
2021/10/23 10:01:32;;;;;;;14.93;7.43;;;11.90;91.40;;;;;;5010218;28;20127;-68
2021/10/23 10:04:09;;;;;;;4.25;2.78;;;11.90;91.20;;;;;;5009884;28;20026;-67
2021/10/23 10:06:37;;;;;;;6.20;2.45;;;11.90;91.20;;;;;;5010525;28;20026;-68
2021/10/23 10:09:03;;;;;;;8.57;2.25;;;12.00;91.10;;;;;;5008624;28;20496;-67
2021/10/23 10:11:29;;;;;;;4.13;2.25;;;12.10;91.10;;;;;;5008391;28;20109;-67
2021/10/23 10:13:55;;;;;;;5.43;2.08;;;12.10;91.10;;;;;;5009021;28;20022;-68
2021/10/23 10:16:21;;;;;;;6.82;2.40;;;12.30;90.90;;;;;;5010805;28;20076;-67
2021/10/23 10:18:47;;;;;;;10.27;2.40;;;12.40;90.90;;;;;;5009087;28;20022;-68
2021/10/23 10:21:19;;;;;;;6.60;3.20;;;12.50;90.70;;;;;;4999460;28;20026;-67
2021/10/23 10:23:45;;;;;;;8.32;3.50;;;12.50;90.50;;;;;;4994469;28;20046;-68
2021/10/23 10:26:14;;;;;;;9.70;3.03;;;12.40;90.40;;;;;;5010642;28;20033;-68
2021/10/23 10:29:18;;;;;;;9.00;3.30;;;12.40;90.30;;;;;;5010188;28;20080;-67
2021/10/23 10:34:44;;;;;;;5.35;3.03;;;12.50;90.40;;;;;;5007780;28;20046;-66
2021/10/23 10:40:18;;;;;;;5.40;2.78;;;12.50;90.30;;;;;;5009076;28;20038;-68
2021/10/23 10:42:58;;;;;;;9.23;2.78;;;12.60;90.30;;;;;;4995524;28;20425;-67
2021/10/23 10:45:23;;;;;;;3.92;2.30;;;12.80;90.30;;;;;;5013909;28;20022;-68
2021/10/23 10:48:18;;;;;;;5.65;2.10;;;12.90;90.20;;;;;;4996464;28;20037;-67
2021/10/23 10:50:46;;;;;;;6.82;2.30;;;13.00;90.00;;;;;;5013337;28;20022;-68
2021/10/23 10:53:23;;;;;;;5.07;2.20;;;13.00;89.50;;;;;;5013432;28;20029;-68
2021/10/23 10:55:51;;;;;;;4.45;2.10;;;12.90;88.90;;;;;;5014484;28;20029;-67
2021/10/23 10:58:39;;;;;;;5.55;2.42;;;12.90;88.90;;;;;;5014453;28;20047;-67
2021/10/23 11:01:16;;;;;;;4.05;2.08;;;12.90;88.80;;;;;;5013673;28;20437;-68
2021/10/23 11:03:45;;;;;;;5.38;1.85;;;12.80;88.00;;;;;;5012482;28;20378;-68
2021/10/23 11:06:30;;;;;;;4.80;1.52;;;12.80;88.40;;;;;;5014253;28;20058;-67
2021/10/23 11:09:10;;;;;;;8.02;1.90;;;12.80;87.80;;;;;;5002805;28;20030;-68
2021/10/23 11:11:48;;;;;;;3.97;1.77;;;12.80;87.50;;;;;;5012778;28;20125;-68
2021/10/23 11:16:58;;;;;;;21.85;11.57;;;12.80;87.30;;;;;;5013910;28;20482;-66
2021/10/23 11:19:24;;;;;;;3.03;2.00;;;12.80;87.30;;;;;;5004614;28;20375;-66
2021/10/23 11:21:54;;;;;;;5.75;2.42;;;12.80;87.30;;;;;;5017843;28;20466;-68
2021/10/23 11:24:23;;;;;;;7.38;2.42;;;12.80;87.00;;;;;;5004871;28;20493;-67
2021/10/23 11:26:49;;;;;;;5.22;1.98;;;12.80;86.80;;;;;;5010889;28;20030;-67
2021/10/23 11:29:26;;;;;;;3.67;1.75;;;12.80;87.30;;;;;;5015989;28;20474;-66
2021/10/23 11:31:56;;;;;;;33.13;18.70;;;12.70;86.40;;;;;;5015277;28;20030;-68
2021/10/23 11:34:35;;;;;;;8.15;3.58;;;12.60;86.70;;;;;;5007957;28;20089;-67
2021/10/23 11:37:10;;;;;;;3.83;1.45;;;12.60;86.40;;;;;;5004503;28;20035;-67
2021/10/23 11:39:55;;;;;;;3.65;1.45;;;12.60;86.10;;;;;;4994844;28;20033;-67
2021/10/23 11:42:25;;;;;;;3.97;1.40;;;12.50;86.00;;;;;;5011186;28;20036;-68
2021/10/23 11:44:55;;;;;;;2.53;1.23;;;12.50;86.00;;;;;;5012488;28;20017;-68
2021/10/23 11:47:29;;;;;;;7.97;1.60;;;12.40;85.80;;;;;;5008469;28;20064;-68
2021/10/23 11:50:05;;;;;;;6.43;1.40;;;12.40;85.60;;;;;;5013075;28;20073;-68
2021/10/23 11:52:32;;;;;;;4.35;1.42;;;12.30;85.30;;;;;;4987545;28;20054;-68
2021/10/23 11:54:58;;;;;;;3.72;1.48;;;12.30;85.60;;;;;;5012045;28;20030;-69
2021/10/23 11:57:37;;;;;;;4.43;1.50;;;12.20;85.50;;;;;;5012526;28;20034;-67
2021/10/23 12:00:06;;;;;;;4.00;1.25;;;12.20;85.30;;;;;;5013147;28;20033;-72
2021/10/23 12:02:57;;;;;;;3.72;1.30;;;12.20;85.50;;;;;;5011875;28;20026;-69
2021/10/23 12:05:34;;;;;;;7.05;1.45;;;12.10;85.20;;;;;;4995662;28;20113;-69
2021/10/23 12:08:12;;;;;;;2.25;1.27;;;12.20;85.40;;;;;;5012751;28;20033;-69
2021/10/23 12:10:57;;;;;;;3.03;1.17;;;12.40;85.00;;;;;;4990239;28;20033;-69
2021/10/23 12:13:23;;;;;;;2.45;0.90;;;12.70;84.70;;;;;;5003669;28;20053;-67
2021/10/23 12:16:06;;;;;;;3.28;1.00;;;13.00;85.10;;;;;;5011486;28;20068;-69
2021/10/23 12:18:36;;;;;;;2.60;1.00;;;13.40;83.90;;;;;;5011361;28;20018;-69
2021/10/23 12:21:19;;;;;;;2.65;1.20;;;13.70;84.00;;;;;;5008071;28;20045;-67
2021/10/23 12:23:50;;;;;;;3.05;1.10;;;14.10;83.00;;;;;;5011313;28;20048;-68
2021/10/23 12:26:17;;;;;;;3.88;1.27;;;14.40;82.50;;;;;;4992474;28;20072;-68
2021/10/23 12:29:10;;;;;;;2.17;1.38;;;14.60;82.00;;;;;;5012414;28;20032;-68
2021/10/23 12:32:03;;;;;;;2.75;0.95;;;14.80;80.90;;;;;;5011842;28;20135;-68
2021/10/23 12:34:50;;;;;;;5.55;1.10;;;14.90;79.80;;;;;;5009700;28;20038;-68
2021/10/23 12:37:40;;;;;;;4.47;1.17;;;14.80;80.50;;;;;;5009918;28;20072;-69
2021/10/23 12:40:23;;;;;;;10.85;5.10;;;14.70;80.10;;;;;;5011781;28;20506;-69
2021/10/23 12:42:56;;;;;;;3.70;1.10;;;14.60;80.10;;;;;;5010835;28;20026;-69
2021/10/23 12:45:23;;;;;;;7.20;1.30;;;14.60;80.00;;;;;;5011773;28;20394;-69
2021/10/23 12:47:53;;;;;;;8.23;1.30;;;14.50;79.70;;;;;;5012090;28;20025;-68
2021/10/23 12:50:25;;;;;;;3.30;1.30;;;14.30;79.30;;;;;;5011151;28;20030;-69
2021/10/23 12:52:52;;;;;;;5.78;1.25;;;14.20;79.10;;;;;;5010445;28;20025;-70
2021/10/23 12:55:19;;;;;;;4.32;1.40;;;14.00;79.40;;;;;;5011768;28;20060;-68
2021/10/23 12:57:44;;;;;;;6.15;1.20;;;14.00;79.00;;;;;;5011231;28;20494;-70
2021/10/23 13:00:10;;;;;;;4.80;1.23;;;13.80;79.10;;;;;;5013807;28;20096;-68
2021/10/23 13:02:36;;;;;;;2.50;1.20;;;13.80;79.00;;;;;;5010294;28;20513;-68
2021/10/23 13:05:04;;;;;;;13.05;1.58;;;13.70;78.90;;;;;;4993900;28;20025;-69